Date,TemperatureHighF,TemperatureAvgF,TemperatureLowF,DewpointHighF,DewpointAvgF,DewpointLowF,HumidityHigh,HumidityAvg,HumidityLow,PressureMaxIn,PressureMinIn,WindSpeedMaxMPH,WindSpeedAvgMPH,GustSpeedMaxMPH,PrecipitationSumIn
2013-1-1,23,18,10,16,10,4,84,73,57,29.35,29.20,8,0,8,0.00
2013-1-2,26,16,7,15,9,3,83,73,60,29.32,29.23,8,0,8,0.00
2013-1-3,31,23,16,25,17,10,84,78,69,29.43,29.24,8,1,12,0.00
2013-1-4,32,22,11,23,15,6,81,75,67,29.42,29.34,13,2,14,0.00
2013-1-5,35,29,22,32,24,17,92,82,74,29.36,29.11,7,1,10,0.00
2013-1-6,35,26,17,31,20,13,92,78,71,29.44,29.09,12,3,14,0.00
2013-1-7,37,28,16,28,22,13,86,78,68,29.45,29.24,10,1,16,0.00
2013-1-8,45,35,28,34,28,22,80,75,63,29.28,29.18,9,1,9,0.00
2013-1-9,49,39,29,35,30,23,84,71,44,29.60,29.18,10,1,11,0.00
2013-1-10,48,36,28,47,28,22,96,74,55,29.58,28.92,11,1,15,0.01
2013-1-11,56,51,46,52,47,44,93,87,77,28.95,28.83,11,2,20,0.01
2013-1-12,51,43,28,47,38,25,92,81,65,29.08,28.87,10,1,10,0.05
2013-1-13,28,21,14,25,16,8,88,82,76,29.39,28.99,7,2,10,0.00
2013-1-14,25,17,12,16,11,8,92,77,62,29.54,29.38,5,0,8,0.00
2013-1-15,30,21,13,22,15,8,85,78,65,29.52,29.22,4,0,7,0.00
2013-1-16,36,28,18,27,20,13,92,73,60,29.22,29.02,13,2,18,0.02
2013-1-17,34,30,23,29,21,16,84,70,52,29.53,29.18,9,1,13,0.00
2013-1-18,43,32,22,30,24,16,80,71,58,29.54,29.13,15,2,15,0.00
2013-1-19,52,40,34,38,31,23,79,70,57,29.15,28.93,15,3,17,0.00
2013-1-20,34,20,15,23,9,5,76,62,46,29.42,29.15,16,2,16,0.00
2013-1-21,17,10,4,9,-1,-6,79,63,44,29.42,29.29,20,4,20,0.00
2013-1-22,14,9,2,0,-4,-6,73,58,44,29.50,29.41,7,2,9,0.00
2013-1-23,32,18,12,16,5,-1,65,57,47,29.44,29.19,9,1,15,0.00
2013-1-24,25,17,6,8,3,-4,68,56,47,29.69,29.41,8,1,10,0.00
2013-1-25,35,26,19,19,15,5,81,63,48,29.41,29.11,13,2,15,0.01
2013-1-26,35,24,13,16,11,6,74,59,39,29.48,29.29,7,0,8,0.01
2013-1-27,42,31,24,40,25,16,91,80,67,29.44,29.02,16,3,19,0.07
2013-1-28,57,50,42,55,48,40,93,92,91,29.06,28.93,9,1,11,0.00
2013-1-29,62,58,52,58,55,49,93,91,85,28.94,28.52,13,2,17,0.34
2013-1-30,52,36,20,49,32,13,93,86,74,28.87,28.40,16,4,20,0.02
2013-1-31,21,15,5,19,7,-3,92,72,61,29.34,28.86,16,5,19,0.00